createdAt,value
2023-01-12T00:02:23.234Z,14.15
2023-01-12T00:04:52.402Z,13.80
2023-01-12T00:07:20.750Z,13.48
2023-01-12T00:09:49.407Z,14.43
2023-01-12T00:12:17.829Z,13.85
2023-01-12T00:14:46.469Z,13.95
2023-01-12T00:17:17.162Z,13.93
2023-01-12T00:19:45.756Z,14.05
2023-01-12T00:22:14.908Z,14.13
2023-01-12T00:24:46.008Z,14.27
2023-01-12T00:27:17.340Z,12.65
2023-01-12T00:29:46.113Z,13.82
2023-01-12T00:32:17.110Z,14.90
2023-01-12T00:34:46.027Z,14.83
2023-01-12T00:37:14.845Z,14.48
2023-01-12T00:39:53.136Z,12.80
2023-01-12T00:42:47.434Z,13.02
2023-01-12T00:45:22.294Z,13.95
2023-01-12T00:47:51.492Z,14.35
2023-01-12T00:50:20.419Z,14.05
2023-01-12T00:52:49.188Z,13.88
2023-01-12T00:55:17.855Z,13.70
2023-01-12T00:57:46.077Z,14.35
2023-01-12T01:00:15.577Z,14.20
2023-01-12T01:02:44.029Z,13.63
2023-01-12T01:05:12.807Z,14.02
2023-01-12T01:07:41.159Z,13.75
2023-01-12T01:10:11.761Z,13.27
2023-01-12T01:12:41.151Z,13.40
2023-01-12T01:15:10.376Z,13.95
2023-01-12T01:17:38.705Z,13.60
2023-01-12T01:20:07.599Z,13.80
2023-01-12T01:22:35.886Z,16.92
2023-01-12T01:25:04.744Z,14.25
2023-01-12T01:27:33.050Z,14.00
2023-01-12T01:30:01.864Z,13.98
2023-01-12T01:32:30.266Z,12.40
2023-01-12T01:34:58.818Z,13.40
2023-01-12T01:37:28.561Z,13.52
2023-01-12T01:39:57.079Z,12.82
2023-01-12T01:42:28.506Z,11.73
2023-01-12T01:44:59.660Z,12.80
2023-01-12T01:47:41.271Z,12.95
2023-01-12T01:50:28.783Z,12.50
2023-01-12T01:53:05.103Z,12.98
2023-01-12T01:55:40.893Z,14.02
2023-01-12T01:58:43.377Z,13.63
2023-01-12T02:01:11.954Z,12.45
2023-01-12T02:03:41.354Z,13.77
2023-01-12T02:06:10.239Z,13.43
2023-01-12T02:08:48.365Z,13.13
2023-01-12T02:11:36.588Z,14.52
2023-01-12T02:14:23.995Z,13.32
2023-01-12T02:17:15.665Z,13.45
2023-01-12T02:19:49.881Z,13.73
2023-01-12T02:22:45.791Z,13.68
2023-01-12T02:25:16.887Z,13.65
2023-01-12T02:28:11.834Z,13.90
2023-01-12T02:31:01.273Z,13.68
2023-01-12T02:33:50.623Z,14.20
2023-01-12T02:36:37.420Z,13.77
2023-01-12T02:39:05.872Z,14.50
2023-01-12T02:42:01.625Z,14.05
2023-01-12T02:44:38.857Z,15.13
2023-01-12T02:47:16.319Z,14.55
2023-01-12T02:49:51.443Z,14.70
2023-01-12T02:52:24.327Z,15.52
2023-01-12T02:54:54.263Z,15.80
2023-01-12T02:57:25.688Z,15.80
2023-01-12T02:59:56.661Z,15.82
2023-01-12T03:02:27.877Z,14.63
2023-01-12T03:07:47.330Z,13.93
2023-01-12T03:10:18.270Z,15.38
2023-01-12T03:12:51.591Z,14.50
2023-01-12T03:15:23.342Z,15.23
2023-01-12T03:18:23.584Z,15.57
2023-01-12T03:20:59.723Z,14.75
2023-01-12T03:23:36.254Z,15.50
2023-01-12T03:26:08.306Z,15.77
2023-01-12T03:28:39.278Z,14.95
2023-01-12T03:31:12.033Z,14.77
2023-01-12T03:33:42.850Z,14.90
2023-01-12T03:36:44.102Z,14.33
2023-01-12T03:39:34.735Z,12.82
2023-01-12T03:42:12.014Z,12.65
2023-01-12T03:44:53.007Z,14.77
2023-01-12T03:47:27.196Z,14.07
2023-01-12T03:50:01.698Z,13.15
2023-01-12T03:52:31.663Z,13.77
2023-01-12T03:55:02.124Z,13.77
2023-01-12T03:57:35.984Z,12.85
2023-01-12T04:00:07.422Z,12.13
2023-01-12T04:02:44.124Z,12.88
2023-01-12T04:05:14.885Z,12.65
2023-01-12T04:07:43.517Z,11.95
2023-01-12T04:10:11.913Z,12.40
2023-01-12T04:12:40.648Z,14.02
2023-01-12T04:15:09.318Z,13.60
2023-01-12T04:17:37.822Z,13.07
2023-01-12T04:20:06.852Z,13.20
2023-01-12T04:22:44.212Z,12.48
2023-01-12T04:25:21.078Z,11.35
2023-01-12T04:28:01.971Z,12.48
2023-01-12T04:30:34.386Z,10.80
2023-01-12T04:33:08.188Z,12.05
2023-01-12T04:35:36.667Z,11.65
2023-01-12T04:38:10.054Z,12.60
2023-01-12T04:40:38.293Z,12.45
2023-01-12T04:43:10.040Z,11.80
2023-01-12T04:45:40.845Z,12.13
2023-01-12T04:48:12.423Z,12.27
2023-01-12T04:50:44.723Z,11.70
2023-01-12T04:53:14.092Z,12.00
2023-01-12T04:55:43.622Z,11.85
2023-01-12T04:58:14.344Z,11.95
2023-01-12T05:00:42.983Z,12.30
2023-01-12T05:03:52.193Z,11.50
2023-01-12T05:06:20.557Z,11.50
2023-01-12T05:09:12.838Z,12.00
2023-01-12T05:11:50.719Z,12.63
2023-01-12T05:14:23.419Z,10.35
2023-01-12T05:16:53.120Z,13.25
2023-01-12T05:20:00.650Z,14.13
2023-01-12T05:22:26.487Z,9.13
2023-01-12T05:24:59.416Z,14.25
2023-01-12T05:27:27.820Z,10.88
2023-01-12T05:29:59.795Z,8.80
2023-01-12T05:32:28.691Z,14.82
2023-01-12T05:34:57.230Z,12.18
2023-01-12T05:37:25.442Z,13.02
2023-01-12T05:39:54.037Z,14.60
2023-01-12T05:42:40.667Z,14.60
2023-01-12T05:45:10.614Z,15.23
2023-01-12T05:47:39.145Z,11.95
2023-01-12T05:50:08.478Z,13.50
2023-01-12T05:52:36.827Z,15.35
2023-01-12T05:55:06.086Z,14.82
2023-01-12T05:57:34.331Z,14.82
2023-01-12T06:00:03.126Z,14.70
2023-01-12T06:02:40.694Z,13.10
2023-01-12T06:05:09.953Z,11.45
2023-01-12T06:07:38.318Z,13.50
2023-01-12T06:10:07.430Z,13.63
2023-01-12T06:12:54.086Z,13.18
2023-01-12T06:15:25.263Z,13.07
2023-01-12T06:17:53.491Z,12.75
2023-01-12T06:20:22.012Z,13.13
2023-01-12T06:22:50.254Z,13.23
2023-01-12T06:25:18.860Z,11.40
2023-01-12T06:27:47.172Z,10.73
2023-01-12T06:30:15.786Z,11.95
2023-01-12T06:32:44.024Z,12.20
2023-01-12T06:35:18.985Z,11.82
2023-01-12T06:37:47.968Z,12.25
2023-01-12T06:40:17.034Z,11.93
2023-01-12T06:42:45.255Z,12.07
2023-01-12T06:45:13.999Z,11.77
2023-01-12T06:47:52.361Z,11.35
2023-01-12T06:50:21.177Z,11.07
2023-01-12T06:52:49.715Z,10.70
2023-01-12T06:55:19.149Z,9.80
2023-01-12T06:57:47.539Z,10.60
2023-01-12T07:00:16.596Z,10.07
2023-01-12T07:02:44.925Z,10.27
2023-01-12T07:05:13.826Z,9.88
2023-01-12T07:07:42.296Z,9.25
2023-01-12T07:10:14.320Z,8.35
2023-01-12T07:12:42.762Z,8.10
2023-01-12T07:15:11.807Z,9.80
2023-01-12T07:17:40.147Z,8.40
2023-01-12T07:20:11.974Z,8.40
2023-01-12T07:22:43.916Z,8.57
2023-01-12T07:25:17.914Z,8.57
2023-01-12T07:27:54.015Z,5.78
2023-01-12T07:30:23.807Z,7.68
2023-01-12T07:32:52.886Z,7.15
2023-01-12T07:35:22.000Z,7.55
2023-01-12T07:37:52.004Z,7.65
2023-01-12T07:40:20.734Z,6.75
2023-01-12T07:42:49.202Z,7.40
2023-01-12T07:45:17.928Z,7.07
2023-01-12T07:47:53.771Z,6.82
2023-01-12T07:50:23.793Z,6.07
2023-01-12T07:52:52.323Z,6.35
2023-01-12T07:55:21.685Z,6.15
2023-01-12T07:57:58.342Z,6.15
2023-01-12T08:00:27.735Z,5.55
2023-01-12T08:03:03.366Z,5.90
2023-01-12T08:05:32.434Z,5.38
2023-01-12T08:08:03.458Z,5.07
2023-01-12T08:10:32.385Z,5.53
2023-01-12T08:13:03.536Z,4.97
2023-01-12T08:15:36.630Z,5.22
2023-01-12T08:18:18.737Z,5.60
2023-01-12T08:20:49.001Z,5.13
2023-01-12T08:23:22.035Z,4.65
2023-01-12T08:25:56.990Z,4.78
2023-01-12T08:28:36.463Z,4.78
2023-01-12T08:31:06.404Z,5.00
2023-01-12T08:33:34.694Z,4.43
2023-01-12T08:36:05.891Z,3.88
2023-01-12T08:38:34.274Z,3.97
2023-01-12T08:41:21.351Z,3.80
2023-01-12T08:44:10.426Z,4.35
2023-01-12T08:46:52.097Z,3.45
2023-01-12T08:49:26.048Z,3.00
2023-01-12T08:51:54.922Z,3.42
2023-01-12T08:54:23.472Z,4.03
2023-01-12T08:56:53.647Z,4.32
2023-01-12T08:59:21.978Z,4.22
2023-01-12T09:01:50.646Z,4.10
2023-01-12T09:04:18.951Z,3.33
2023-01-12T09:06:48.507Z,3.83
2023-01-12T09:09:20.249Z,4.00
2023-01-12T09:14:18.199Z,4.25
2023-01-12T09:16:47.127Z,4.45
2023-01-12T09:19:15.609Z,3.78
2023-01-12T09:21:44.969Z,3.20
2023-01-12T09:24:17.506Z,3.58
2023-01-12T09:26:47.037Z,3.50
2023-01-12T09:29:15.576Z,3.40
2023-01-12T09:31:45.756Z,3.35
2023-01-12T09:34:14.849Z,2.67
2023-01-12T09:36:44.845Z,3.15
2023-01-12T09:39:26.862Z,3.55
2023-01-12T09:42:16.226Z,3.97
2023-01-12T09:45:12.456Z,3.17
2023-01-12T09:47:56.385Z,3.63
2023-01-12T09:50:40.590Z,3.00
2023-01-12T09:53:32.910Z,5.38
2023-01-12T09:56:04.153Z,3.03
2023-01-12T09:58:48.003Z,2.80
2023-01-12T10:01:33.834Z,3.15
2023-01-12T10:04:04.227Z,2.95
2023-01-12T10:06:33.398Z,3.03
2023-01-12T10:09:10.231Z,3.70
2023-01-12T10:11:56.826Z,3.13
2023-01-12T10:14:37.281Z,2.75
2023-01-12T10:17:46.021Z,3.17
2023-01-12T10:20:22.156Z,3.20
2023-01-12T10:22:55.037Z,3.10
2023-01-12T10:25:35.144Z,3.20
2023-01-12T10:28:12.060Z,3.10
2023-01-12T10:30:43.017Z,2.92
2023-01-12T10:33:39.729Z,3.22
2023-01-12T10:36:20.518Z,2.67
2023-01-12T10:39:03.479Z,2.92
2023-01-12T10:42:08.344Z,2.88
2023-01-12T10:44:27.535Z,2.15
2023-01-12T10:47:17.642Z,2.78
2023-01-12T10:49:46.118Z,3.00
2023-01-12T10:52:43.744Z,2.65
2023-01-12T10:55:20.674Z,3.20
2023-01-12T10:57:51.250Z,2.85
2023-01-12T11:00:25.383Z,3.10
2023-01-12T11:02:54.965Z,2.55
2023-01-12T11:05:38.524Z,3.47
2023-01-12T11:08:23.762Z,3.15
2023-01-12T11:10:52.271Z,2.63
2023-01-12T11:13:36.942Z,3.47
2023-01-12T11:16:12.006Z,2.83
2023-01-12T11:19:05.441Z,2.42
2023-01-12T11:21:42.537Z,3.08
2023-01-12T11:24:26.506Z,3.10
2023-01-12T11:27:35.865Z,3.20
2023-01-12T11:30:08.289Z,3.22
2023-01-12T11:32:46.287Z,3.03
2023-01-12T11:35:27.340Z,2.60
2023-01-12T11:38:02.498Z,3.03
2023-01-12T11:40:35.144Z,3.10
2023-01-12T11:43:34.219Z,3.10
2023-01-12T11:46:24.019Z,2.63
2023-01-12T11:49:05.813Z,3.00
2023-01-12T11:51:42.241Z,2.63
2023-01-12T11:54:23.366Z,2.20
2023-01-12T11:57:06.797Z,2.73
2023-01-12T12:00:19.743Z,2.85
2023-01-12T12:03:07.378Z,3.30
2023-01-12T12:05:58.650Z,3.00
2023-01-12T12:08:50.322Z,3.95
2023-01-12T12:11:46.009Z,2.97
2023-01-12T12:14:39.604Z,2.67
2023-01-12T12:17:28.372Z,5.57
2023-01-12T12:20:22.322Z,4.60
2023-01-12T12:22:57.403Z,3.58
2023-01-12T12:26:03.489Z,4.50
2023-01-12T12:28:57.354Z,3.78
2023-01-12T12:31:31.452Z,3.28
2023-01-12T12:34:14.579Z,3.60
2023-01-12T12:36:54.526Z,3.72
2023-01-12T12:39:32.263Z,3.72
2023-01-12T12:42:43.828Z,3.63
2023-01-12T12:45:57.301Z,3.47
2023-01-12T12:48:48.675Z,3.40
2023-01-12T12:51:17.977Z,3.50
2023-01-12T12:53:52.368Z,3.35
2023-01-12T12:56:23.864Z,3.70
2023-01-12T12:58:57.677Z,3.35
2023-01-12T13:01:27.459Z,3.00
2023-01-12T13:04:08.184Z,2.88
2023-01-12T13:06:43.707Z,3.33
2023-01-12T13:09:12.248Z,3.50
2023-01-12T13:11:59.763Z,2.97
2023-01-12T13:14:43.267Z,2.80
2023-01-12T13:17:21.081Z,3.22
2023-01-12T13:20:08.340Z,3.17
2023-01-12T13:25:10.675Z,3.30
2023-01-12T13:28:03.263Z,3.38
2023-01-12T13:30:31.756Z,3.90
2023-01-12T13:33:15.185Z,3.80
2023-01-12T13:35:45.240Z,3.90
2023-01-12T13:38:33.004Z,3.83
2023-01-12T13:41:51.565Z,4.88
2023-01-12T13:44:28.739Z,4.05
2023-01-12T13:47:30.505Z,4.32
2023-01-12T13:50:08.738Z,3.60
2023-01-12T13:52:39.670Z,3.42
2023-01-12T13:55:32.023Z,3.72
2023-01-12T13:58:17.732Z,3.97
2023-01-12T14:00:56.243Z,3.67
2023-01-12T14:03:46.568Z,3.83
2023-01-12T14:06:30.029Z,3.80
2023-01-12T14:09:16.238Z,4.15
2023-01-12T14:12:15.623Z,4.22
2023-01-12T14:15:41.320Z,4.57
2023-01-12T14:18:18.139Z,4.18
2023-01-12T14:20:49.643Z,3.90
2023-01-12T14:23:22.335Z,4.63
2023-01-12T14:26:17.796Z,3.63
2023-01-12T14:28:51.749Z,3.80
2023-01-12T14:31:46.338Z,3.90
2023-01-12T14:35:06.369Z,3.83
2023-01-12T14:37:35.864Z,4.82
2023-01-12T14:40:33.915Z,4.18
2023-01-12T14:43:22.991Z,4.75
2023-01-12T14:46:17.052Z,4.57
2023-01-12T14:49:06.080Z,5.00
2023-01-12T14:51:45.794Z,4.85
2023-01-12T14:54:40.163Z,8.48
2023-01-12T15:01:38.970Z,5.95
2023-01-12T15:04:32.263Z,5.07
2023-01-12T15:14:30.610Z,6.45
2023-01-12T15:17:22.121Z,4.30
2023-01-12T15:20:11.913Z,5.50
2023-01-12T15:22:59.841Z,5.38
2023-01-12T15:25:37.216Z,5.68
2023-01-12T15:28:08.298Z,5.90
2023-01-12T15:30:57.445Z,5.65
2023-01-12T15:33:35.112Z,5.20
2023-01-12T15:36:03.745Z,4.80
2023-01-12T15:38:33.767Z,4.63
2023-01-12T15:41:12.850Z,5.05
2023-01-12T15:43:44.732Z,4.70
2023-01-12T15:46:20.295Z,4.70
2023-01-12T15:49:16.781Z,5.20
2023-01-12T15:51:53.003Z,4.93
2023-01-12T15:54:47.272Z,5.18
2023-01-12T15:57:16.830Z,5.15
2023-01-12T15:59:48.035Z,5.30
2023-01-12T16:02:38.452Z,5.60
2023-01-12T16:05:10.558Z,5.32
2023-01-12T16:07:43.395Z,5.20
2023-01-12T16:10:14.268Z,5.78
2023-01-12T16:12:44.308Z,5.50
2023-01-12T16:15:19.511Z,4.72
2023-01-12T16:17:49.037Z,5.20
2023-01-12T16:20:20.345Z,5.90
2023-01-12T16:22:55.068Z,5.75
2023-01-12T16:25:58.057Z,6.20
2023-01-12T16:28:26.971Z,5.03
2023-01-12T16:30:56.917Z,7.53
2023-01-12T16:33:25.935Z,6.72
2023-01-12T16:35:59.385Z,5.20
2023-01-12T16:38:28.746Z,4.65
2023-01-12T16:41:22.693Z,4.50
2023-01-12T16:43:55.799Z,4.55
2023-01-12T16:46:51.983Z,5.28
2023-01-12T16:49:22.802Z,4.82
2023-01-12T16:51:54.218Z,5.03
2023-01-12T16:54:24.200Z,4.88
2023-01-12T16:56:54.152Z,5.13
2023-01-12T16:59:25.332Z,5.25
2023-01-12T17:02:03.196Z,4.90
2023-01-12T17:04:35.617Z,5.40
2023-01-12T17:07:09.076Z,5.10
2023-01-12T17:09:45.212Z,5.53
2023-01-12T17:12:17.211Z,5.35
2023-01-12T17:14:46.532Z,4.88
2023-01-12T17:17:45.929Z,6.60
2023-01-12T17:23:52.583Z,4.88
2023-01-12T17:27:39.433Z,5.10
2023-01-12T17:36:55.448Z,5.30
2023-01-12T17:40:58.453Z,5.90
2023-01-12T17:46:25.886Z,6.68
2023-01-12T17:48:57.235Z,7.20
2023-01-12T17:51:50.361Z,6.90
2023-01-12T17:54:20.256Z,5.30
2023-01-12T17:56:50.045Z,5.57
2023-01-12T18:00:03.757Z,6.47
2023-01-12T18:03:06.465Z,6.47
2023-01-12T18:05:36.660Z,6.78
2023-01-12T18:08:05.163Z,8.15
2023-01-12T18:10:35.933Z,7.70
2023-01-12T18:13:04.164Z,7.90
2023-01-12T18:15:37.138Z,8.85
2023-01-12T18:18:08.001Z,6.43
2023-01-12T18:20:36.973Z,7.93
2023-01-12T18:23:05.650Z,6.85
2023-01-12T18:25:41.123Z,6.45
2023-01-12T18:28:26.699Z,6.32
2023-01-12T18:31:07.074Z,5.47
2023-01-12T18:33:39.273Z,4.40
2023-01-12T18:36:20.459Z,4.97
2023-01-12T18:38:59.736Z,6.57
2023-01-12T18:41:46.744Z,6.05
2023-01-12T18:44:22.084Z,6.22
2023-01-12T18:47:16.796Z,8.30
2023-01-12T18:49:50.521Z,7.75
2023-01-12T18:52:40.211Z,7.45
2023-01-12T18:55:09.275Z,5.38
2023-01-12T18:57:45.013Z,6.82
2023-01-12T19:03:25.535Z,6.38
2023-01-12T19:06:04.163Z,7.00
2023-01-12T19:08:52.066Z,5.80
2023-01-12T19:11:25.536Z,6.50
2023-01-12T19:14:17.711Z,5.18
2023-01-12T19:17:21.485Z,5.22
2023-01-12T19:19:55.196Z,5.43
2023-01-12T19:22:45.492Z,6.13
2023-01-12T19:25:35.601Z,5.53
2023-01-12T19:28:23.889Z,6.05
2023-01-12T19:30:55.519Z,6.20
2023-01-12T19:33:23.896Z,6.72
2023-01-12T19:35:52.906Z,5.28
2023-01-12T19:38:24.000Z,4.82
2023-01-12T19:41:13.191Z,5.60
2023-01-12T19:43:56.665Z,5.80
2023-01-12T19:46:25.382Z,5.43
2023-01-12T19:48:53.944Z,5.88
2023-01-12T19:51:22.933Z,5.20
2023-01-12T19:53:51.274Z,5.60
2023-01-12T19:56:20.040Z,5.47
2023-01-12T19:59:14.336Z,7.07
2023-01-12T20:01:43.058Z,7.32
2023-01-12T20:04:17.603Z,6.90
2023-01-12T20:06:53.242Z,6.80
2023-01-12T20:09:21.530Z,5.53
2023-01-12T20:11:54.498Z,6.13
2023-01-12T20:14:23.001Z,5.68
2023-01-12T20:16:59.743Z,4.97
2023-01-12T20:20:15.646Z,7.07
2023-01-12T20:22:48.716Z,5.88
2023-01-12T20:25:28.121Z,6.22
2023-01-12T20:29:17.870Z,5.30
2023-01-12T20:31:36.259Z,4.50
2023-01-12T20:37:16.136Z,4.93
2023-01-12T20:46:13.025Z,8.48
2023-01-12T20:48:45.923Z,4.38
2023-01-12T20:51:18.373Z,3.75
2023-01-12T20:53:51.088Z,6.93
2023-01-12T20:56:24.806Z,5.82
2023-01-12T20:58:57.447Z,5.95
2023-01-12T21:02:39.343Z,5.03
2023-01-12T21:05:12.442Z,5.95
2023-01-12T21:07:40.979Z,6.28
2023-01-12T21:10:20.150Z,5.53
2023-01-12T21:13:01.498Z,5.60
2023-01-12T21:15:47.230Z,5.13
2023-01-12T21:22:14.082Z,5.55
2023-01-12T21:25:00.853Z,5.18
2023-01-12T21:27:53.174Z,5.85
2023-01-12T21:30:37.422Z,4.75
2023-01-12T21:33:17.158Z,4.65
2023-01-12T21:35:57.230Z,5.60
2023-01-12T21:38:28.879Z,7.43
2023-01-12T21:41:10.036Z,9.82
2023-01-12T21:43:44.620Z,8.35
2023-01-12T21:46:14.138Z,7.57
2023-01-12T21:48:49.838Z,4.88
2023-01-12T21:51:19.027Z,6.75
2023-01-12T21:53:48.893Z,7.10
2023-01-12T21:56:17.809Z,5.55
2023-01-12T21:58:46.401Z,6.10
2023-01-12T22:01:18.175Z,5.45
2023-01-12T22:03:52.325Z,5.30
2023-01-12T22:06:45.433Z,7.75
2023-01-12T22:09:24.173Z,5.90
2023-01-12T22:11:54.978Z,6.73
2023-01-12T22:14:23.931Z,5.18
2023-01-12T22:16:52.770Z,6.57
2023-01-12T22:19:21.205Z,6.57
2023-01-12T22:21:50.236Z,5.13
2023-01-12T22:24:18.608Z,4.72
2023-01-12T22:26:50.055Z,4.50
2023-01-12T22:29:18.515Z,4.55
2023-01-12T22:31:47.422Z,5.70
2023-01-12T22:34:18.711Z,5.38
2023-01-12T22:36:48.189Z,4.57
2023-01-12T22:39:24.800Z,5.80
2023-01-12T22:42:01.673Z,4.43
2023-01-12T22:44:32.338Z,4.40
2023-01-12T22:47:01.047Z,4.28
2023-01-12T22:49:35.676Z,4.75
2023-01-12T22:52:04.546Z,3.72
2023-01-12T22:54:32.939Z,4.43
2023-01-12T22:57:03.141Z,4.10
2023-01-12T22:59:31.717Z,4.35
2023-01-12T23:02:20.395Z,3.80
2023-01-12T23:04:49.081Z,4.10
2023-01-12T23:07:19.705Z,4.55
2023-01-12T23:09:48.351Z,4.88
2023-01-12T23:12:17.456Z,3.53
2023-01-12T23:14:45.962Z,4.07
2023-01-12T23:17:14.756Z,4.32
2023-01-12T23:19:45.225Z,3.65
2023-01-12T23:22:15.333Z,4.22
2023-01-12T23:24:43.643Z,4.82
2023-01-12T23:27:12.257Z,5.30
2023-01-12T23:29:40.738Z,5.53
2023-01-12T23:32:09.812Z,4.60
2023-01-12T23:34:38.109Z,4.85
2023-01-12T23:37:07.144Z,5.72
2023-01-12T23:39:35.494Z,5.55
2023-01-12T23:42:04.216Z,6.07
2023-01-12T23:44:32.552Z,5.07
2023-01-12T23:47:01.405Z,5.93
2023-01-12T23:49:29.720Z,4.80
2023-01-12T23:51:58.432Z,5.18
2023-01-12T23:54:26.743Z,5.75
2023-01-12T23:56:55.731Z,4.57
2023-01-12T23:59:24.098Z,6.22
